KDET/DET METAR and TAF weather

Enter ICAO airport designator
Station Type Date Time Source
KDET METAR 2018/06/25 01:53 UTC NOAA

KDET 250153Z 06005KT 10SM CLR 18/15 A3005 RMK AO2 SLP172 T01780150 $


Station Type Date Time Source
KDET Decoded METAR 2018/06/25 01:53 UTC NOAA

DETROIT CITY AIRPORT, MI, United States (KDET) 42-25N 083-01W 190M
Jun 24, 2018 - 09:53 PM EDT / 2018.06.25 0153 UTC
Wind: from the ENE (060 degrees) at 6 MPH (5 KT):0
Visibility: 10 mile(s):0
Sky conditions: clear
Temperature: 64.0 F (17.8 C)
Dew Point: 59.0 F (15.0 C)
Relative Humidity: 83%
Pressure (altimeter): 30.05 in. Hg (1017 hPa)
ob: KDET 250153Z 06005KT 10SM CLR 18/15 A3005 RMK AO2 SLP172 T01780150
cycle: 2

Station Type Date Time Source
KDET TAF 2018/06/24 18:33 UTC NOAA

TAF KDET 241731Z 2418/2518 01007KT P6SM VCSH BKN025 OVC035
FM242100 02008KT P6SM BKN035 BKN060
FM250100 03005KT P6SM FEW120 SCT250
FM251500 05010KT P6SM SCT030


Example: see airport list